Longview, Mississippi
Current Conditions -  °F | °C
As of 2:15 PM on Sunday 25 Jan 2015 (Local Time) from KSTF Reporting Station
Broken Clouds Broken Clouds  
Wind Chill: 63°   Ceiling: 8000
Heat Index: 63°   Visibility: 10mi
Dew Point: 37°   Wind: 15mph
Humidity: 39%   Direction: 220°SW
Pressure: 29.71"   Gusts: 23mph
Location:  33.4256°N, 88.8438°W
Report Text: KSTF 252015Z AUTO 22013G20KT 10SM SCT070 BKN080 BKN100 17/03 A2971 RMK AO2
Loading
Personal Weather Stations






























Interactive Weather Map New forecast layout! Learn more

10-Day Weather Forecast

Advertisements
Track Severe Weather on mobile